createdAt,value
2023-02-19T00:02:02.600Z,73.30
2023-02-19T00:04:30.949Z,73.41
2023-02-19T00:07:00.373Z,73.64
2023-02-19T00:09:30.319Z,73.77
2023-02-19T00:11:59.029Z,73.74
2023-02-19T00:14:28.180Z,73.78
2023-02-19T00:16:57.121Z,74.26
2023-02-19T00:19:26.039Z,74.50
2023-02-19T00:21:55.470Z,74.64
2023-02-19T00:24:23.880Z,74.73
2023-02-19T00:26:55.397Z,74.43
2023-02-19T00:29:25.561Z,74.95
2023-02-19T00:31:53.994Z,74.93
2023-02-19T00:34:23.301Z,75.22
2023-02-19T00:36:52.781Z,75.48
2023-02-19T00:39:21.632Z,75.53
2023-02-19T00:41:51.427Z,75.45
2023-02-19T00:44:21.561Z,75.79
2023-02-19T00:46:49.951Z,75.58
2023-02-19T00:49:22.108Z,75.66
2023-02-19T00:51:51.400Z,75.86
2023-02-19T00:54:22.867Z,75.84
2023-02-19T00:56:52.867Z,75.63
2023-02-19T00:59:22.604Z,75.81
2023-02-19T01:01:51.937Z,75.89
2023-02-19T01:04:20.393Z,75.71
2023-02-19T01:06:50.961Z,75.64
2023-02-19T01:09:19.266Z,75.84
2023-02-19T01:11:48.593Z,76.02
2023-02-19T01:14:16.972Z,75.96
2023-02-19T01:16:48.588Z,75.61
2023-02-19T01:19:17.014Z,75.93
2023-02-19T01:21:45.725Z,75.94
2023-02-19T01:24:14.453Z,75.86
2023-02-19T01:26:42.754Z,75.57
2023-02-19T01:29:12.380Z,75.77
2023-02-19T01:31:42.112Z,75.82
2023-02-19T01:34:13.811Z,75.36
2023-02-19T01:36:42.124Z,75.54
2023-02-19T01:39:12.815Z,75.46
2023-02-19T01:41:43.058Z,75.28
2023-02-19T01:44:45.899Z,75.64
2023-02-19T01:47:18.119Z,75.40
2023-02-19T01:49:53.904Z,75.49
2023-02-19T01:52:27.165Z,75.19
2023-02-19T01:54:56.335Z,75.23
2023-02-19T01:57:28.062Z,75.06
2023-02-19T02:00:03.588Z,75.14
2023-02-19T02:02:42.648Z,75.30
2023-02-19T02:05:19.217Z,75.20
2023-02-19T02:08:06.320Z,75.24
2023-02-19T02:10:35.069Z,74.95
2023-02-19T02:13:05.269Z,74.99
2023-02-19T02:15:40.617Z,75.04
2023-02-19T02:18:21.128Z,74.60
2023-02-19T02:21:13.435Z,74.81
2023-02-19T02:23:59.544Z,74.55
2023-02-19T02:26:43.253Z,74.51
2023-02-19T02:29:54.398Z,73.95
2023-02-19T02:32:28.701Z,74.14
2023-02-19T02:35:04.457Z,74.21
2023-02-19T02:37:37.824Z,73.86
2023-02-19T02:40:10.771Z,74.09
2023-02-19T02:42:40.921Z,74.14
2023-02-19T02:45:38.752Z,73.66
2023-02-19T02:48:37.441Z,73.64
2023-02-19T02:51:14.260Z,73.92
2023-02-19T02:54:12.187Z,73.83
2023-02-19T02:56:43.082Z,73.66
2023-02-19T02:59:15.821Z,73.78
2023-02-19T03:02:05.907Z,73.93
2023-02-19T03:05:02.655Z,73.81
2023-02-19T03:07:37.616Z,73.68
2023-02-19T03:10:11.286Z,73.75
2023-02-19T03:12:59.783Z,73.64
2023-02-19T03:15:48.892Z,73.71
2023-02-19T03:18:36.791Z,73.59
2023-02-19T03:21:08.799Z,73.66
2023-02-19T03:24:06.713Z,73.79
2023-02-19T03:26:35.259Z,73.61
2023-02-19T03:29:26.429Z,73.71
2023-02-19T03:32:07.212Z,73.58
2023-02-19T03:34:38.643Z,73.63
2023-02-19T03:37:14.110Z,73.24
2023-02-19T03:39:47.683Z,73.05
2023-02-19T03:42:32.472Z,73.23
2023-02-19T03:45:13.929Z,73.34
2023-02-19T03:47:50.248Z,73.07
2023-02-19T03:50:26.570Z,73.44
2023-02-19T03:53:07.713Z,73.31
2023-02-19T03:55:45.806Z,73.25
2023-02-19T03:58:21.736Z,72.94
2023-02-19T04:00:57.270Z,73.41
2023-02-19T04:03:34.134Z,73.48
2023-02-19T04:06:07.331Z,73.05
2023-02-19T04:08:38.303Z,73.41
2023-02-19T04:11:10.062Z,73.25
2023-02-19T04:13:44.807Z,73.59
2023-02-19T04:16:21.699Z,73.46
2023-02-19T04:18:54.595Z,73.63
2023-02-19T04:21:25.091Z,73.70
2023-02-19T04:23:55.423Z,73.81
2023-02-19T04:26:24.332Z,74.04
2023-02-19T04:28:52.657Z,73.90
2023-02-19T04:31:21.079Z,74.18
2023-02-19T04:33:51.412Z,74.10
2023-02-19T04:36:19.822Z,74.19
2023-02-19T04:38:48.163Z,74.58
2023-02-19T04:41:17.900Z,74.69
2023-02-19T04:43:47.238Z,74.81
2023-02-19T04:46:16.428Z,74.95
2023-02-19T04:48:46.567Z,75.08
2023-02-19T04:51:15.357Z,75.21
2023-02-19T04:53:45.215Z,75.29
2023-02-19T04:56:16.036Z,75.51
2023-02-19T04:58:46.370Z,75.71
2023-02-19T05:01:15.413Z,75.85
2023-02-19T05:03:44.536Z,75.95
2023-02-19T05:06:15.039Z,76.08
2023-02-19T05:08:43.761Z,76.42
2023-02-19T05:11:14.598Z,76.58
2023-02-19T05:13:42.981Z,76.86
2023-02-19T05:16:16.476Z,77.09
2023-02-19T05:18:47.215Z,77.06
2023-02-19T05:21:17.588Z,76.97
2023-02-19T05:23:46.073Z,77.41
2023-02-19T05:26:18.330Z,77.33
2023-02-19T05:28:47.714Z,77.33
2023-02-19T05:31:18.223Z,77.58
2023-02-19T05:33:51.535Z,77.80
2023-02-19T05:36:21.870Z,77.93
2023-02-19T05:38:55.017Z,77.94
2023-02-19T05:41:25.270Z,78.29
2023-02-19T05:43:54.217Z,78.34
2023-02-19T05:46:26.805Z,78.35
2023-02-19T05:48:55.334Z,78.43
2023-02-19T05:51:27.261Z,78.72
2023-02-19T05:53:57.148Z,78.69
2023-02-19T05:56:31.649Z,78.81
2023-02-19T05:59:01.077Z,78.95
2023-02-19T06:01:32.837Z,79.11
2023-02-19T06:04:01.913Z,79.13
2023-02-19T06:06:30.612Z,79.09
2023-02-19T06:08:58.959Z,79.19
2023-02-19T06:11:28.135Z,79.38
2023-02-19T06:13:56.474Z,79.38
2023-02-19T06:16:26.240Z,79.54
2023-02-19T06:18:56.277Z,79.30
2023-02-19T06:21:25.447Z,79.61
2023-02-19T06:23:53.784Z,79.50
2023-02-19T06:26:24.791Z,79.57
2023-02-19T06:28:54.493Z,79.73
2023-02-19T06:31:23.984Z,79.79
2023-02-19T06:33:52.933Z,79.73
2023-02-19T06:36:23.711Z,79.77
2023-02-19T06:38:53.273Z,79.98
2023-02-19T06:41:21.658Z,80.12
2023-02-19T06:43:50.965Z,80.11
2023-02-19T06:46:19.441Z,80.18
2023-02-19T06:49:08.750Z,80.37
2023-02-19T06:51:59.741Z,80.31
2023-02-19T06:54:49.304Z,80.20
2023-02-19T06:57:37.893Z,80.29
2023-02-19T07:00:27.447Z,80.53
2023-02-19T07:03:16.480Z,80.58
2023-02-19T07:06:05.682Z,81.15
2023-02-19T07:08:57.850Z,80.96
2023-02-19T07:11:46.499Z,81.10
2023-02-19T07:14:35.761Z,81.05
2023-02-19T07:17:24.373Z,80.94
2023-02-19T07:20:14.765Z,81.00
2023-02-19T07:23:03.350Z,80.79
2023-02-19T07:25:54.157Z,81.07
2023-02-19T07:28:43.280Z,80.98
2023-02-19T07:31:33.511Z,80.95
2023-02-19T07:34:22.658Z,80.59
2023-02-19T07:37:11.897Z,80.56
2023-02-19T07:40:00.468Z,80.25
2023-02-19T07:42:51.761Z,80.54
2023-02-19T07:45:40.358Z,80.22
2023-02-19T07:48:30.010Z,79.96
2023-02-19T07:51:22.151Z,80.11
2023-02-19T07:54:11.518Z,79.83
2023-02-19T07:57:00.633Z,79.71
2023-02-19T07:59:50.621Z,79.50
2023-02-19T08:03:08.285Z,79.38
2023-02-19T08:05:59.273Z,79.39
2023-02-19T08:08:47.956Z,79.24
2023-02-19T08:11:54.596Z,79.03
2023-02-19T08:14:43.216Z,78.53
2023-02-19T08:17:34.122Z,78.27
2023-02-19T08:20:23.184Z,78.08
2023-02-19T08:23:12.778Z,77.31
2023-02-19T08:26:03.214Z,76.78
2023-02-19T08:28:51.840Z,76.27
2023-02-19T08:31:41.236Z,76.26
2023-02-19T08:34:31.302Z,75.93
2023-02-19T08:37:20.238Z,75.29
2023-02-19T08:40:09.793Z,74.89
2023-02-19T08:43:04.593Z,74.27
2023-02-19T08:45:55.104Z,73.82
2023-02-19T08:48:43.791Z,73.42
2023-02-19T08:51:34.797Z,73.05
2023-02-19T08:54:23.408Z,72.83
2023-02-19T08:57:12.893Z,72.40
2023-02-19T09:00:01.512Z,72.25
2023-02-19T09:02:51.132Z,71.90
2023-02-19T09:05:39.867Z,71.50
2023-02-19T09:08:30.841Z,70.85
2023-02-19T09:11:19.902Z,70.63
2023-02-19T09:14:09.080Z,70.32
2023-02-19T09:16:57.896Z,69.87
2023-02-19T09:19:47.765Z,69.42
2023-02-19T09:22:38.122Z,69.16
2023-02-19T09:25:28.118Z,68.38
2023-02-19T09:28:16.902Z,68.08
2023-02-19T09:31:06.441Z,67.65
2023-02-19T09:33:55.584Z,67.39
2023-02-19T09:36:44.189Z,67.20
2023-02-19T09:39:33.899Z,67.18
2023-02-19T09:42:26.659Z,66.68
2023-02-19T09:45:23.146Z,66.63
2023-02-19T09:48:13.946Z,66.62
2023-02-19T09:51:04.275Z,66.80
2023-02-19T09:53:55.315Z,66.42
2023-02-19T09:56:44.147Z,66.77
2023-02-19T09:59:41.929Z,66.63
2023-02-19T10:02:31.302Z,66.58
2023-02-19T10:05:21.730Z,66.76
2023-02-19T10:08:17.272Z,66.89
2023-02-19T10:11:08.740Z,67.10
2023-02-19T10:14:05.898Z,66.99
2023-02-19T10:17:06.252Z,66.88
2023-02-19T10:19:55.689Z,67.02
2023-02-19T10:22:44.811Z,67.05
2023-02-19T10:25:36.389Z,66.87
2023-02-19T10:28:29.599Z,66.80
2023-02-19T10:31:21.610Z,66.45
2023-02-19T10:34:19.148Z,66.38
2023-02-19T10:37:14.512Z,66.08
2023-02-19T10:40:03.906Z,65.73
2023-02-19T10:42:56.107Z,65.51
2023-02-19T10:45:48.696Z,65.21
2023-02-19T10:48:42.251Z,65.36
2023-02-19T10:51:36.251Z,64.90
2023-02-19T10:54:28.566Z,64.75
2023-02-19T10:57:30.528Z,64.05
2023-02-19T11:00:26.805Z,64.21
2023-02-19T11:03:22.406Z,64.11
2023-02-19T11:06:13.106Z,63.85
2023-02-19T11:09:03.170Z,64.36
2023-02-19T11:11:55.192Z,63.84
2023-02-19T11:14:45.739Z,63.58
2023-02-19T11:17:35.142Z,63.82
2023-02-19T11:20:24.033Z,63.46
2023-02-19T11:23:17.519Z,63.58
2023-02-19T11:26:19.849Z,63.48
2023-02-19T11:29:19.748Z,63.16
2023-02-19T11:32:28.095Z,63.31
2023-02-19T11:35:19.749Z,63.16
2023-02-19T11:38:11.857Z,62.90
2023-02-19T11:41:11.702Z,62.87
2023-02-19T11:44:18.446Z,62.68
2023-02-19T11:47:39.557Z,62.67
2023-02-19T11:50:34.787Z,62.41
2023-02-19T11:53:28.322Z,62.67
2023-02-19T11:56:21.780Z,62.52
2023-02-19T11:59:19.060Z,62.19
2023-02-19T12:02:28.739Z,62.16
2023-02-19T12:05:41.773Z,61.63
2023-02-19T12:09:04.925Z,61.58
2023-02-19T12:12:12.309Z,61.46
2023-02-19T12:15:42.090Z,61.07
2023-02-19T12:19:00.463Z,60.66
2023-02-19T12:22:04.442Z,60.69
2023-02-19T12:25:11.232Z,60.97
2023-02-19T12:28:22.512Z,60.11
2023-02-19T12:31:36.272Z,59.00
2023-02-19T12:35:18.554Z,58.11
2023-02-19T12:38:23.341Z,56.88
2023-02-19T12:41:28.603Z,56.23
2023-02-19T12:44:22.943Z,55.37
2023-02-19T12:47:20.868Z,54.76
2023-02-19T12:50:21.163Z,54.79
2023-02-19T12:53:27.888Z,54.38
2023-02-19T12:56:22.356Z,54.04
2023-02-19T12:59:16.221Z,54.46
2023-02-19T13:02:15.686Z,54.41
2023-02-19T13:05:12.656Z,54.98
2023-02-19T13:08:05.981Z,55.01
2023-02-19T13:10:59.983Z,54.84
2023-02-19T13:13:53.055Z,54.22
2023-02-19T13:16:46.467Z,53.43
2023-02-19T13:19:38.297Z,52.65
2023-02-19T13:22:53.406Z,52.37
2023-02-19T13:25:58.540Z,51.72
2023-02-19T13:29:02.948Z,51.97
2023-02-19T13:32:11.214Z,51.78
2023-02-19T13:35:20.820Z,52.16
2023-02-19T13:38:13.063Z,51.68
2023-02-19T13:41:02.449Z,50.85
2023-02-19T13:44:03.953Z,50.53
2023-02-19T13:46:53.715Z,50.23
2023-02-19T13:49:45.835Z,50.27
2023-02-19T13:52:41.396Z,50.52
2023-02-19T13:55:52.324Z,50.91
2023-02-19T13:59:01.688Z,51.36
2023-02-19T14:02:27.795Z,51.61
2023-02-19T14:05:55.137Z,52.09
2023-02-19T14:08:51.362Z,52.69
2023-02-19T14:12:06.369Z,52.79
2023-02-19T14:14:56.080Z,53.44
2023-02-19T14:17:46.966Z,53.28
2023-02-19T14:20:43.415Z,53.44
2023-02-19T14:23:33.749Z,53.96
2023-02-19T14:26:25.257Z,54.00
2023-02-19T14:29:16.820Z,54.09
2023-02-19T14:32:06.544Z,54.30
2023-02-19T14:34:58.114Z,54.23
2023-02-19T14:37:48.386Z,54.40
2023-02-19T14:40:41.582Z,54.87
2023-02-19T14:43:34.286Z,55.20
2023-02-19T14:46:30.645Z,55.28
2023-02-19T14:49:26.225Z,55.17
2023-02-19T14:52:20.755Z,55.24
2023-02-19T14:55:14.408Z,55.06
2023-02-19T14:58:08.061Z,55.26
2023-02-19T15:00:58.179Z,55.12
2023-02-19T15:03:51.304Z,55.03
2023-02-19T15:06:40.972Z,54.82
2023-02-19T15:09:34.231Z,54.90
2023-02-19T15:12:46.693Z,54.54
2023-02-19T15:15:40.673Z,55.00
2023-02-19T15:18:36.067Z,55.16
2023-02-19T15:21:26.967Z,54.80
2023-02-19T15:24:19.038Z,55.19
2023-02-19T15:27:07.744Z,55.27
2023-02-19T15:29:56.374Z,55.37
2023-02-19T15:32:53.414Z,54.81
2023-02-19T15:35:43.465Z,54.87
2023-02-19T15:38:33.669Z,54.09
2023-02-19T15:41:24.563Z,54.03
2023-02-19T15:44:35.812Z,54.11
2023-02-19T15:47:33.677Z,54.44
2023-02-19T15:50:26.714Z,54.42
2023-02-19T15:53:20.729Z,54.74
2023-02-19T15:56:13.377Z,54.85
2023-02-19T15:59:07.828Z,55.39
2023-02-19T16:01:57.506Z,55.47
2023-02-19T16:04:46.700Z,55.60
2023-02-19T16:07:36.408Z,56.17
2023-02-19T16:10:26.477Z,56.08
2023-02-19T16:13:26.078Z,56.50
2023-02-19T16:16:22.512Z,56.65
2023-02-19T16:19:11.236Z,56.94
2023-02-19T16:22:02.115Z,56.87
2023-02-19T16:24:52.736Z,57.45
2023-02-19T16:27:44.550Z,57.55
2023-02-19T16:30:35.336Z,57.52
2023-02-19T16:33:38.896Z,57.98
2023-02-19T16:36:41.277Z,57.86
2023-02-19T16:39:32.558Z,58.17
2023-02-19T16:42:21.883Z,58.28
2023-02-19T16:45:11.886Z,58.10
2023-02-19T16:48:00.919Z,58.34
2023-02-19T16:50:49.579Z,58.68
2023-02-19T16:53:39.873Z,58.28
2023-02-19T16:56:28.627Z,58.74
2023-02-19T16:59:18.165Z,58.74
2023-02-19T17:02:12.604Z,58.71
2023-02-19T17:05:01.681Z,58.71
2023-02-19T17:07:51.404Z,58.52
2023-02-19T17:10:39.984Z,58.59
2023-02-19T17:13:29.752Z,58.87
2023-02-19T17:16:20.264Z,58.61
2023-02-19T17:19:14.750Z,58.72
2023-02-19T17:22:03.866Z,58.75
2023-02-19T17:24:55.958Z,58.82
2023-02-19T17:27:44.574Z,59.16
2023-02-19T17:30:37.311Z,58.79
2023-02-19T17:33:27.587Z,59.21
2023-02-19T17:36:21.282Z,58.92
2023-02-19T17:39:15.899Z,58.93
2023-02-19T17:42:05.291Z,59.38
2023-02-19T17:44:55.788Z,59.01
2023-02-19T17:47:44.516Z,59.18
2023-02-19T17:50:34.399Z,59.32
2023-02-19T17:53:24.406Z,59.58
2023-02-19T17:56:18.121Z,60.04
2023-02-19T17:59:07.167Z,60.26
2023-02-19T18:01:56.292Z,60.21
2023-02-19T18:04:44.894Z,60.59
2023-02-19T18:07:36.439Z,60.78
2023-02-19T18:10:26.461Z,61.21
2023-02-19T18:13:15.473Z,61.19
2023-02-19T18:16:05.131Z,61.32
2023-02-19T18:18:54.969Z,61.42
2023-02-19T18:21:44.294Z,61.51
2023-02-19T18:24:32.957Z,61.47
2023-02-19T18:27:25.236Z,61.48
2023-02-19T18:30:16.750Z,61.67
2023-02-19T18:33:11.309Z,61.56
2023-02-19T18:35:59.995Z,61.81
2023-02-19T18:38:49.665Z,61.65
2023-02-19T18:41:38.284Z,61.87
2023-02-19T18:44:30.162Z,61.69
2023-02-19T18:47:19.203Z,61.94
2023-02-19T18:50:10.356Z,61.65
2023-02-19T18:52:59.456Z,61.94
2023-02-19T18:55:49.016Z,61.96
2023-02-19T18:58:39.271Z,61.67
2023-02-19T19:01:30.175Z,61.66
2023-02-19T19:04:19.044Z,61.98
2023-02-19T19:07:10.210Z,61.98
2023-02-19T19:09:58.816Z,61.82
2023-02-19T19:12:49.362Z,61.90
2023-02-19T19:15:40.718Z,61.94
2023-02-19T19:18:31.229Z,61.86
2023-02-19T19:21:21.650Z,62.09
2023-02-19T19:24:10.398Z,62.23
2023-02-19T19:27:00.150Z,61.87
2023-02-19T19:29:49.689Z,61.90
2023-02-19T19:32:40.116Z,62.08
2023-02-19T19:35:30.190Z,62.00
2023-02-19T19:38:19.697Z,62.02
2023-02-19T19:41:08.329Z,61.80
2023-02-19T19:43:57.387Z,61.91
2023-02-19T19:46:46.477Z,61.67
2023-02-19T19:49:36.138Z,61.52
2023-02-19T19:52:26.108Z,61.99
2023-02-19T19:55:17.388Z,61.77
2023-02-19T19:58:06.238Z,61.67
2023-02-19T20:00:56.020Z,61.57
2023-02-19T20:03:44.624Z,61.56
2023-02-19T20:06:34.335Z,61.82
2023-02-19T20:09:25.560Z,61.65
2023-02-19T20:12:15.987Z,61.59
2023-02-19T20:15:06.228Z,61.79
2023-02-19T20:17:54.972Z,61.70
2023-02-19T20:20:44.419Z,61.53
2023-02-19T20:23:33.317Z,61.69
2023-02-19T20:26:26.685Z,61.63
2023-02-19T20:29:15.686Z,61.71
2023-02-19T20:32:04.410Z,61.72
2023-02-19T20:34:54.581Z,61.58
2023-02-19T20:37:43.727Z,61.60
2023-02-19T20:40:34.812Z,61.54
2023-02-19T20:43:26.505Z,61.63
2023-02-19T20:46:16.471Z,61.71
2023-02-19T20:49:06.760Z,61.87
2023-02-19T20:51:58.110Z,61.70
2023-02-19T20:54:48.580Z,61.69
2023-02-19T20:57:37.589Z,61.67
2023-02-19T21:00:28.003Z,62.10
2023-02-19T21:03:16.785Z,61.93
2023-02-19T21:06:07.508Z,62.14
2023-02-19T21:08:56.113Z,62.21
2023-02-19T21:11:45.418Z,62.41
2023-02-19T21:14:34.006Z,62.20
2023-02-19T21:17:25.580Z,62.28
2023-02-19T21:20:15.292Z,62.46
2023-02-19T21:23:04.669Z,62.20
2023-02-19T21:25:55.003Z,62.47
2023-02-19T21:28:44.190Z,62.61
2023-02-19T21:31:38.190Z,62.75
2023-02-19T21:34:30.543Z,62.61
2023-02-19T21:37:19.137Z,62.53
2023-02-19T21:40:11.571Z,62.48
2023-02-19T21:43:00.473Z,62.89
2023-02-19T21:45:50.125Z,62.65
2023-02-19T21:48:38.748Z,62.86
2023-02-19T21:51:32.277Z,62.89
2023-02-19T21:54:25.007Z,62.94
2023-02-19T21:57:13.652Z,63.06
2023-02-19T22:00:02.330Z,62.97
2023-02-19T22:02:53.898Z,63.10
2023-02-19T22:05:43.205Z,62.93
2023-02-19T22:08:33.188Z,62.81
2023-02-19T22:11:22.771Z,63.08
2023-02-19T22:14:11.421Z,63.07
2023-02-19T22:17:01.581Z,63.31
2023-02-19T22:19:50.790Z,62.99
2023-02-19T22:22:39.928Z,63.06
2023-02-19T22:25:30.021Z,63.14
2023-02-19T22:28:19.519Z,63.36
2023-02-19T22:31:09.086Z,63.08
2023-02-19T22:33:58.704Z,63.30
2023-02-19T22:36:48.579Z,63.54
2023-02-19T22:39:38.497Z,63.39
2023-02-19T22:42:29.339Z,63.21
2023-02-19T22:45:19.524Z,63.54
2023-02-19T22:48:08.124Z,63.55
2023-02-19T22:50:57.883Z,63.47
2023-02-19T22:53:47.882Z,63.80
2023-02-19T22:56:37.912Z,63.80
2023-02-19T22:59:27.923Z,63.81
2023-02-19T23:02:17.534Z,63.92
2023-02-19T23:05:06.452Z,63.75
2023-02-19T23:07:56.838Z,63.71
2023-02-19T23:10:45.469Z,63.99
2023-02-19T23:13:35.171Z,63.86
2023-02-19T23:16:25.798Z,64.11
2023-02-19T23:19:18.095Z,64.08
2023-02-19T23:22:06.948Z,63.98
2023-02-19T23:24:57.230Z,64.10
2023-02-19T23:27:45.825Z,64.28
2023-02-19T23:30:36.216Z,64.20
2023-02-19T23:33:26.246Z,64.37
2023-02-19T23:36:17.551Z,64.42
2023-02-19T23:39:06.185Z,64.44
2023-02-19T23:41:57.873Z,64.41
2023-02-19T23:44:47.692Z,64.52
2023-02-19T23:47:38.077Z,64.57
2023-02-19T23:50:28.108Z,64.99
2023-02-19T23:53:17.632Z,64.79
2023-02-19T23:56:07.191Z,64.85
2023-02-19T23:58:56.626Z,65.02
